sensor_id;sensor_type;location;lat;lon;timestamp;pressure;altitude;pressure_sealevel;temperature;humidity
64294;BME280;50636;45.596;5.258;2023-07-08T00:01:20;98687.72;;;27.33;36.17
64294;BME280;50636;45.596;5.258;2023-07-08T00:03:46;98671.53;;;27.33;35.81
64294;BME280;50636;45.596;5.258;2023-07-08T00:06:18;98683.91;;;27.34;36.13
64294;BME280;50636;45.596;5.258;2023-07-08T00:08:45;98678.50;;;27.34;36.15
64294;BME280;50636;45.596;5.258;2023-07-08T00:11:11;98653.47;;;27.33;35.88
64294;BME280;50636;45.596;5.258;2023-07-08T00:13:37;98654.25;;;27.34;36.33
64294;BME280;50636;45.596;5.258;2023-07-08T00:16:02;98658.22;;;27.36;36.55
64294;BME280;50636;45.596;5.258;2023-07-08T00:18:28;98664.41;;;27.37;36.19
64294;BME280;50636;45.596;5.258;2023-07-08T00:20:53;98668.69;;;27.38;36.55
64294;BME280;50636;45.596;5.258;2023-07-08T00:23:19;98663.59;;;27.36;36.57
64294;BME280;50636;45.596;5.258;2023-07-08T00:25:47;98657.44;;;27.36;36.89
64294;BME280;50636;45.596;5.258;2023-07-08T00:28:16;98665.00;;;27.25;36.81
64294;BME280;50636;45.596;5.258;2023-07-08T00:30:42;98678.41;;;27.16;37.16
64294;BME280;50636;45.596;5.258;2023-07-08T00:33:08;98677.28;;;27.08;37.83
64294;BME280;50636;45.596;5.258;2023-07-08T00:35:38;98683.09;;;27.02;37.59
64294;BME280;50636;45.596;5.258;2023-07-08T00:40:52;98680.16;;;26.89;38.39
64294;BME280;50636;45.596;5.258;2023-07-08T00:43:30;98679.97;;;26.86;38.46
64294;BME280;50636;45.596;5.258;2023-07-08T00:46:22;98667.94;;;26.83;38.54
64294;BME280;50636;45.596;5.258;2023-07-08T00:48:51;98649.75;;;26.89;38.21
64294;BME280;50636;45.596;5.258;2023-07-08T00:51:17;98644.41;;;26.98;38.27
64294;BME280;50636;45.596;5.258;2023-07-08T00:53:44;98636.28;;;26.89;38.57
64294;BME280;50636;45.596;5.258;2023-07-08T00:56:12;98636.38;;;26.75;39.03
64294;BME280;50636;45.596;5.258;2023-07-08T00:58:43;98628.75;;;26.68;39.29
64294;BME280;50636;45.596;5.258;2023-07-08T01:01:09;98639.44;;;26.60;39.54
64294;BME280;50636;45.596;5.258;2023-07-08T01:03:38;98636.56;;;26.56;39.58
64294;BME280;50636;45.596;5.258;2023-07-08T01:06:07;98640.03;;;26.57;39.96
64294;BME280;50636;45.596;5.258;2023-07-08T01:08:33;98631.47;;;26.55;39.97
64294;BME280;50636;45.596;5.258;2023-07-08T01:10:59;98630.69;;;26.54;40.06
64294;BME280;50636;45.596;5.258;2023-07-08T01:13:26;98617.41;;;26.58;39.98
64294;BME280;50636;45.596;5.258;2023-07-08T01:15:53;98615.22;;;26.60;39.61
64294;BME280;50636;45.596;5.258;2023-07-08T01:18:19;98606.84;;;26.61;39.54
64294;BME280;50636;45.596;5.258;2023-07-08T01:20:49;98615.22;;;26.60;39.69
64294;BME280;50636;45.596;5.258;2023-07-08T01:23:15;98606.66;;;26.58;39.86
64294;BME280;50636;45.596;5.258;2023-07-08T01:25:41;98612.84;;;26.58;40.02
64294;BME280;50636;45.596;5.258;2023-07-08T01:28:07;98609.72;;;26.65;39.82
64294;BME280;50636;45.596;5.258;2023-07-08T01:30:32;98616.38;;;26.67;39.76
64294;BME280;50636;45.596;5.258;2023-07-08T01:32:59;98623.34;;;26.68;39.68
64294;BME280;50636;45.596;5.258;2023-07-08T01:35:26;98639.81;;;26.67;39.32
64294;BME280;50636;45.596;5.258;2023-07-08T01:37:53;98645.97;;;26.67;39.28
64294;BME280;50636;45.596;5.258;2023-07-08T01:40:26;98646.16;;;26.71;39.60
64294;BME280;50636;45.596;5.258;2023-07-08T01:42:52;98643.34;;;26.76;39.27
64294;BME280;50636;45.596;5.258;2023-07-08T01:45:19;98651.00;;;26.83;39.19
64294;BME280;50636;45.596;5.258;2023-07-08T01:47:53;98660.75;;;27.01;39.04
64294;BME280;50636;45.596;5.258;2023-07-08T01:50:20;98653.22;;;27.21;39.05
64294;BME280;50636;45.596;5.258;2023-07-08T01:52:46;98659.94;;;27.32;38.68
64294;BME280;50636;45.596;5.258;2023-07-08T01:55:12;98656.16;;;27.33;38.50
64294;BME280;50636;45.596;5.258;2023-07-08T01:57:38;98649.66;;;27.34;38.73
64294;BME280;50636;45.596;5.258;2023-07-08T02:00:03;98634.78;;;27.37;38.49
64294;BME280;50636;45.596;5.258;2023-07-08T02:02:29;98614.19;;;27.58;38.58
64294;BME280;50636;45.596;5.258;2023-07-08T02:04:54;98616.16;;;27.93;40.29
64294;BME280;50636;45.596;5.258;2023-07-08T02:07:20;98617.72;;;27.67;41.10
64294;BME280;50636;45.596;5.258;2023-07-08T02:09:45;98624.78;;;27.37;42.67
64294;BME280;50636;45.596;5.258;2023-07-08T02:12:11;98623.09;;;27.59;42.95
64294;BME280;50636;45.596;5.258;2023-07-08T02:14:37;98625.00;;;27.67;42.19
64294;BME280;50636;45.596;5.258;2023-07-08T02:17:02;98628.97;;;27.61;42.01
64294;BME280;50636;45.596;5.258;2023-07-08T02:19:31;98629.66;;;27.93;41.23
64294;BME280;50636;45.596;5.258;2023-07-08T02:21:56;98626.31;;;28.04;40.44
64294;BME280;50636;45.596;5.258;2023-07-08T02:24:22;98630.88;;;27.78;40.47
64294;BME280;50636;45.596;5.258;2023-07-08T02:26:48;98631.50;;;27.66;40.81
64294;BME280;50636;45.596;5.258;2023-07-08T02:29:14;98634.44;;;27.38;40.79
64294;BME280;50636;45.596;5.258;2023-07-08T02:31:39;98630.66;;;27.08;40.69
64294;BME280;50636;45.596;5.258;2023-07-08T02:34:05;98627.03;;;26.73;41.17
64294;BME280;50636;45.596;5.258;2023-07-08T02:36:30;98621.25;;;26.65;41.50
64294;BME280;50636;45.596;5.258;2023-07-08T02:38:55;98625.47;;;26.80;41.43
64294;BME280;50636;45.596;5.258;2023-07-08T02:41:21;98628.13;;;27.03;41.40
64294;BME280;50636;45.596;5.258;2023-07-08T02:43:46;98646.16;;;27.25;40.77
64294;BME280;50636;45.596;5.258;2023-07-08T02:46:12;98649.16;;;27.32;40.87
64294;BME280;50636;45.596;5.258;2023-07-08T02:48:37;98648.09;;;27.42;40.81
64294;BME280;50636;45.596;5.258;2023-07-08T02:51:03;98648.09;;;27.50;40.27
64294;BME280;50636;45.596;5.258;2023-07-08T02:53:29;98651.13;;;27.49;40.31
64294;BME280;50636;45.596;5.258;2023-07-08T02:55:55;98651.91;;;27.41;40.50
64294;BME280;50636;45.596;5.258;2023-07-08T02:58:20;98651.13;;;27.09;40.62
64294;BME280;50636;45.596;5.258;2023-07-08T03:00:51;98641.88;;;26.70;41.37
64294;BME280;50636;45.596;5.258;2023-07-08T03:03:16;98652.09;;;26.37;41.85
64294;BME280;50636;45.596;5.258;2023-07-08T03:05:42;98651.50;;;26.03;42.66
64294;BME280;50636;45.596;5.258;2023-07-08T03:08:07;98646.03;;;25.81;42.91
64294;BME280;50636;45.596;5.258;2023-07-08T03:10:32;98647.03;;;25.71;43.50
64294;BME280;50636;45.596;5.258;2023-07-08T03:12:58;98652.91;;;25.87;43.48
64294;BME280;50636;45.596;5.258;2023-07-08T03:15:23;98663.38;;;25.75;43.46
64294;BME280;50636;45.596;5.258;2023-07-08T03:17:49;98659.63;;;25.62;43.55
64294;BME280;50636;45.596;5.258;2023-07-08T03:20:14;98663.81;;;25.54;43.69
64294;BME280;50636;45.596;5.258;2023-07-08T03:22:39;98666.91;;;25.47;44.29
64294;BME280;50636;45.596;5.258;2023-07-08T03:25:05;98662.19;;;25.39;44.63
64294;BME280;50636;45.596;5.258;2023-07-08T03:27:31;98660.03;;;25.27;44.48
64294;BME280;50636;45.596;5.258;2023-07-08T03:29:56;98655.44;;;25.28;44.16
64294;BME280;50636;45.596;5.258;2023-07-08T03:32:22;98655.81;;;25.35;44.43
64294;BME280;50636;45.596;5.258;2023-07-08T03:34:47;98667.47;;;25.44;44.59
64294;BME280;50636;45.596;5.258;2023-07-08T03:37:12;98665.78;;;25.62;44.77
64294;BME280;50636;45.596;5.258;2023-07-08T03:39:38;98670.38;;;25.62;44.97
64294;BME280;50636;45.596;5.258;2023-07-08T03:42:03;98668.97;;;25.50;45.19
64294;BME280;50636;45.596;5.258;2023-07-08T03:44:29;98673.16;;;25.43;45.16
64294;BME280;50636;45.596;5.258;2023-07-08T03:46:55;98676.72;;;25.38;45.39
64294;BME280;50636;45.596;5.258;2023-07-08T03:49:21;98681.13;;;25.34;45.23
64294;BME280;50636;45.596;5.258;2023-07-08T03:51:49;98673.34;;;25.33;45.36
64294;BME280;50636;45.596;5.258;2023-07-08T03:54:14;98678.38;;;25.20;45.83
64294;BME280;50636;45.596;5.258;2023-07-08T03:56:40;98677.84;;;25.04;46.17
64294;BME280;50636;45.596;5.258;2023-07-08T03:59:06;98682.00;;;24.97;46.48
64294;BME280;50636;45.596;5.258;2023-07-08T04:01:31;98676.97;;;24.95;46.62
64294;BME280;50636;45.596;5.258;2023-07-08T04:03:57;98675.66;;;24.92;46.63
64294;BME280;50636;45.596;5.258;2023-07-08T04:06:23;98675.81;;;24.82;46.80
64294;BME280;50636;45.596;5.258;2023-07-08T04:08:49;98671.38;;;24.91;46.54
64294;BME280;50636;45.596;5.258;2023-07-08T04:11:16;98675.78;;;25.15;46.24
64294;BME280;50636;45.596;5.258;2023-07-08T04:13:42;98675.13;;;25.51;45.72
64294;BME280;50636;45.596;5.258;2023-07-08T04:16:07;98674.53;;;25.40;45.99
64294;BME280;50636;45.596;5.258;2023-07-08T04:18:36;98681.25;;;25.10;46.74
64294;BME280;50636;45.596;5.258;2023-07-08T04:21:01;98683.19;;;24.90;47.35
64294;BME280;50636;45.596;5.258;2023-07-08T04:23:27;98683.59;;;24.84;47.37
64294;BME280;50636;45.596;5.258;2023-07-08T04:25:53;98689.47;;;24.86;47.94
64294;BME280;50636;45.596;5.258;2023-07-08T04:28:20;98681.06;;;25.20;47.36
64294;BME280;50636;45.596;5.258;2023-07-08T04:30:46;98679.63;;;25.42;46.73
64294;BME280;50636;45.596;5.258;2023-07-08T04:33:12;98679.72;;;25.64;46.48
64294;BME280;50636;45.596;5.258;2023-07-08T04:35:38;98682.28;;;25.83;46.44
64294;BME280;50636;45.596;5.258;2023-07-08T04:38:08;98682.28;;;25.97;45.56
64294;BME280;50636;45.596;5.258;2023-07-08T04:40:39;98687.84;;;25.87;45.60
64294;BME280;50636;45.596;5.258;2023-07-08T04:43:07;98684.19;;;25.69;45.89
64294;BME280;50636;45.596;5.258;2023-07-08T04:45:33;98685.59;;;25.52;46.08
64294;BME280;50636;45.596;5.258;2023-07-08T04:47:58;98690.03;;;25.16;46.94
64294;BME280;50636;45.596;5.258;2023-07-08T04:50:24;98699.31;;;24.90;47.51
64294;BME280;50636;45.596;5.258;2023-07-08T04:52:49;98702.53;;;24.74;48.08
64294;BME280;50636;45.596;5.258;2023-07-08T04:55:15;98709.66;;;24.64;48.45
64294;BME280;50636;45.596;5.258;2023-07-08T04:57:40;98700.47;;;24.51;48.78
64294;BME280;50636;45.596;5.258;2023-07-08T05:00:06;98709.16;;;24.43;49.16
64294;BME280;50636;45.596;5.258;2023-07-08T05:02:35;98703.19;;;24.46;49.53
64294;BME280;50636;45.596;5.258;2023-07-08T05:05:01;98706.47;;;24.62;49.15
64294;BME280;50636;45.596;5.258;2023-07-08T05:07:27;98707.56;;;24.61;49.16
64294;BME280;50636;45.596;5.258;2023-07-08T05:09:52;98704.72;;;24.52;49.27
64294;BME280;50636;45.596;5.258;2023-07-08T05:12:18;98716.19;;;24.58;49.57
64294;BME280;50636;45.596;5.258;2023-07-08T05:14:43;98703.28;;;26.09;47.04
64294;BME280;50636;45.596;5.258;2023-07-08T05:17:10;98700.81;;;27.65;43.48
64294;BME280;50636;45.596;5.258;2023-07-08T05:19:35;98706.94;;;28.93;41.00
64294;BME280;50636;45.596;5.258;2023-07-08T05:22:01;98695.53;;;30.24;38.95
64294;BME280;50636;45.596;5.258;2023-07-08T05:24:26;98691.16;;;31.19;37.28
64294;BME280;50636;45.596;5.258;2023-07-08T05:26:52;98688.44;;;32.06;35.58
64294;BME280;50636;45.596;5.258;2023-07-08T05:29:17;98690.50;;;32.65;33.34
64294;BME280;50636;45.596;5.258;2023-07-08T05:31:42;98699.34;;;33.22;32.77
64294;BME280;50636;45.596;5.258;2023-07-08T05:34:08;98698.41;;;33.97;31.33
64294;BME280;50636;45.596;5.258;2023-07-08T05:36:33;98699.94;;;34.73;29.76
64294;BME280;50636;45.596;5.258;2023-07-08T05:38:59;98708.88;;;34.93;27.83
64294;BME280;50636;45.596;5.258;2023-07-08T05:41:24;98705.63;;;34.45;27.77
64294;BME280;50636;45.596;5.258;2023-07-08T05:43:50;98715.00;;;33.92;28.43
64294;BME280;50636;45.596;5.258;2023-07-08T05:46:15;98714.78;;;33.50;28.79
64294;BME280;50636;45.596;5.258;2023-07-08T05:48:41;98711.94;;;33.27;29.26
64294;BME280;50636;45.596;5.258;2023-07-08T05:51:06;98713.66;;;33.51;29.17
64294;BME280;50636;45.596;5.258;2023-07-08T05:53:31;98712.88;;;33.66;28.92
64294;BME280;50636;45.596;5.258;2023-07-08T05:55:57;98714.34;;;33.79;28.72
64294;BME280;50636;45.596;5.258;2023-07-08T05:58:22;98724.03;;;33.45;29.50
64294;BME280;50636;45.596;5.258;2023-07-08T06:00:54;98723.94;;;33.57;29.08
64294;BME280;50636;45.596;5.258;2023-07-08T06:03:19;98724.59;;;33.86;28.89
64294;BME280;50636;45.596;5.258;2023-07-08T06:05:45;98732.94;;;34.29;28.30
64294;BME280;50636;45.596;5.258;2023-07-08T06:08:10;98728.72;;;34.70;28.00
64294;BME280;50636;45.596;5.258;2023-07-08T06:10:40;98720.03;;;35.07;27.86
64294;BME280;50636;45.596;5.258;2023-07-08T06:13:06;98728.06;;;35.43;27.19
64294;BME280;50636;45.596;5.258;2023-07-08T06:15:31;98734.00;;;35.25;26.90
64294;BME280;50636;45.596;5.258;2023-07-08T06:17:57;98742.16;;;35.02;27.28
64294;BME280;50636;45.596;5.258;2023-07-08T06:20:25;98743.28;;;35.20;27.20
64294;BME280;50636;45.596;5.258;2023-07-08T06:22:51;98738.19;;;35.19;26.89
64294;BME280;50636;45.596;5.258;2023-07-08T06:25:16;98751.94;;;34.64;27.21
64294;BME280;50636;45.596;5.258;2023-07-08T06:27:42;98744.34;;;34.54;27.37
64294;BME280;50636;45.596;5.258;2023-07-08T06:30:07;98753.53;;;34.46;27.74
64294;BME280;50636;45.596;5.258;2023-07-08T06:32:33;98766.16;;;34.54;27.68
64294;BME280;50636;45.596;5.258;2023-07-08T06:34:58;98753.75;;;34.95;27.18
64294;BME280;50636;45.596;5.258;2023-07-08T06:37:24;98757.81;;;35.51;26.50
64294;BME280;50636;45.596;5.258;2023-07-08T06:39:49;98756.44;;;36.14;26.21
64294;BME280;50636;45.596;5.258;2023-07-08T06:42:15;98762.47;;;36.57;25.00
64294;BME280;50636;45.596;5.258;2023-07-08T06:44:40;98759.41;;;36.96;24.50
64294;BME280;50636;45.596;5.258;2023-07-08T06:47:10;98763.03;;;37.08;23.75
64294;BME280;50636;45.596;5.258;2023-07-08T06:49:35;98756.28;;;36.98;24.51
64294;BME280;50636;45.596;5.258;2023-07-08T06:52:01;98768.88;;;37.06;23.94
64294;BME280;50636;45.596;5.258;2023-07-08T06:54:26;98765.88;;;37.60;23.93
64294;BME280;50636;45.596;5.258;2023-07-08T06:56:53;98770.38;;;37.86;22.76
64294;BME280;50636;45.596;5.258;2023-07-08T06:59:18;98762.59;;;37.91;22.56
64294;BME280;50636;45.596;5.258;2023-07-08T07:01:43;98767.94;;;38.40;23.08
64294;BME280;50636;45.596;5.258;2023-07-08T07:04:09;98772.38;;;38.69;21.99
64294;BME280;50636;45.596;5.258;2023-07-08T07:06:34;98768.06;;;38.75;21.65
64294;BME280;50636;45.596;5.258;2023-07-08T07:09:00;98779.06;;;38.79;21.59
64294;BME280;50636;45.596;5.258;2023-07-08T07:11:25;98768.72;;;38.36;21.85
64294;BME280;50636;45.596;5.258;2023-07-08T07:13:51;98782.44;;;38.40;22.28
64294;BME280;50636;45.596;5.258;2023-07-08T07:16:16;98775.06;;;38.51;22.23
64294;BME280;50636;45.596;5.258;2023-07-08T07:18:42;98773.13;;;38.52;21.79
64294;BME280;50636;45.596;5.258;2023-07-08T07:21:07;98773.00;;;38.34;22.13
64294;BME280;50636;45.596;5.258;2023-07-08T07:23:33;98776.09;;;38.25;21.73
64294;BME280;50636;45.596;5.258;2023-07-08T07:25:58;98772.38;;;37.92;22.09
64294;BME280;50636;45.596;5.258;2023-07-08T07:28:23;98781.81;;;38.02;22.44
64294;BME280;50636;45.596;5.258;2023-07-08T07:30:55;98772.75;;;37.94;21.96
64294;BME280;50636;45.596;5.258;2023-07-08T07:33:21;98776.53;;;37.72;22.51
64294;BME280;50636;45.596;5.258;2023-07-08T07:35:46;98774.97;;;37.26;22.62
64294;BME280;50636;45.596;5.258;2023-07-08T07:38:13;98770.19;;;36.82;23.38
64294;BME280;50636;45.596;5.258;2023-07-08T07:40:39;98777.31;;;36.56;23.78
64294;BME280;50636;45.596;5.258;2023-07-08T07:43:04;98778.97;;;36.08;23.94
64294;BME280;50636;45.596;5.258;2023-07-08T07:45:30;98774.63;;;35.53;24.59
64294;BME280;50636;45.596;5.258;2023-07-08T07:47:55;98773.16;;;35.59;24.85
64294;BME280;50636;45.596;5.258;2023-07-08T07:50:21;98788.03;;;35.62;24.65
64294;BME280;50636;45.596;5.258;2023-07-08T07:52:46;98780.38;;;36.21;24.76
64294;BME280;50636;45.596;5.258;2023-07-08T07:55:12;98774.75;;;37.08;24.71
64294;BME280;50636;45.596;5.258;2023-07-08T07:57:37;98774.88;;;38.12;23.00
64294;BME280;50636;45.596;5.258;2023-07-08T08:00:03;98766.84;;;37.85;21.88
64294;BME280;50636;45.596;5.258;2023-07-08T08:02:28;98775.53;;;37.05;23.27
64294;BME280;50636;45.596;5.258;2023-07-08T08:04:54;98779.19;;;36.18;24.33
64294;BME280;50636;45.596;5.258;2023-07-08T08:07:19;98787.56;;;36.63;24.23
64294;BME280;50636;45.596;5.258;2023-07-08T08:09:45;98794.97;;;38.41;22.38
64294;BME280;50636;45.596;5.258;2023-07-08T08:12:11;98787.81;;;39.96;20.48
64294;BME280;50636;45.596;5.258;2023-07-08T08:14:37;98782.31;;;39.78;20.43
64294;BME280;50636;45.596;5.258;2023-07-08T08:17:02;98789.78;;;40.03;20.50
64294;BME280;50636;45.596;5.258;2023-07-08T08:19:28;98794.53;;;40.98;20.00
64294;BME280;50636;45.596;5.258;2023-07-08T08:21:54;98791.13;;;41.39;19.16
64294;BME280;50636;45.596;5.258;2023-07-08T08:24:19;98805.41;;;40.34;18.98
64294;BME280;50636;45.596;5.258;2023-07-08T08:26:45;98792.09;;;39.00;20.89
64294;BME280;50636;45.596;5.258;2023-07-08T08:29:10;98800.34;;;39.22;20.84
64294;BME280;50636;45.596;5.258;2023-07-08T08:31:36;98793.34;;;39.67;20.26
64294;BME280;50636;45.596;5.258;2023-07-08T08:34:01;98789.41;;;39.97;19.99
64294;BME280;50636;45.596;5.258;2023-07-08T08:36:27;98799.59;;;39.64;19.83
64294;BME280;50636;45.596;5.258;2023-07-08T08:38:52;98799.56;;;39.32;20.19
64294;BME280;50636;45.596;5.258;2023-07-08T08:41:19;98795.69;;;39.90;20.23
64294;BME280;50636;45.596;5.258;2023-07-08T08:43:46;98802.50;;;40.81;19.90
64294;BME280;50636;45.596;5.258;2023-07-08T08:46:19;98794.25;;;42.27;18.94
64294;BME280;50636;45.596;5.258;2023-07-08T08:51:40;98798.91;;;41.96;17.04
64294;BME280;50636;45.596;5.258;2023-07-08T08:54:06;98797.22;;;41.08;17.96
64294;BME280;50636;45.596;5.258;2023-07-08T08:56:35;98803.38;;;40.57;18.70
64294;BME280;50636;45.596;5.258;2023-07-08T09:01:28;98800.03;;;40.98;19.12
64294;BME280;50636;45.596;5.258;2023-07-08T09:06:32;98800.06;;;41.99;18.50
64294;BME280;50636;45.596;5.258;2023-07-08T09:09:21;98803.63;;;41.96;17.60
64294;BME280;50636;45.596;5.258;2023-07-08T09:11:50;98805.13;;;41.59;17.94
64294;BME280;50636;45.596;5.258;2023-07-08T09:14:24;98800.78;;;42.06;17.84
64294;BME280;50636;45.596;5.258;2023-07-08T09:19:39;98814.72;;;42.95;16.99
64294;BME280;50636;45.596;5.258;2023-07-08T09:22:28;98811.13;;;42.67;16.71
64294;BME280;50636;45.596;5.258;2023-07-08T09:25:05;98816.50;;;42.47;17.42
64294;BME280;50636;45.596;5.258;2023-07-08T09:27:36;98812.19;;;41.63;17.20
64294;BME280;50636;45.596;5.258;2023-07-08T09:30:02;98810.03;;;41.33;18.19
64294;BME280;50636;45.596;5.258;2023-07-08T09:32:28;98817.56;;;41.29;18.50
64294;BME280;50636;45.596;5.258;2023-07-08T09:34:55;98821.03;;;41.37;18.04
64294;BME280;50636;45.596;5.258;2023-07-08T09:37:39;98808.59;;;41.10;18.17
64294;BME280;50636;45.596;5.258;2023-07-08T09:40:14;98812.72;;;40.81;18.71
64294;BME280;50636;45.596;5.258;2023-07-08T09:42:40;98806.53;;;41.29;18.66
64294;BME280;50636;45.596;5.258;2023-07-08T09:45:14;98802.09;;;41.46;18.75
64294;BME280;50636;45.596;5.258;2023-07-08T09:47:40;98797.88;;;42.21;17.90
64294;BME280;50636;45.596;5.258;2023-07-08T09:50:16;98806.22;;;42.14;17.35
64294;BME280;50636;45.596;5.258;2023-07-08T09:52:43;98801.22;;;42.36;18.48
64294;BME280;50636;45.596;5.258;2023-07-08T09:55:10;98795.31;;;42.68;17.66
64294;BME280;50636;45.596;5.258;2023-07-08T09:57:36;98794.06;;;42.42;17.78
64294;BME280;50636;45.596;5.258;2023-07-08T10:00:03;98797.22;;;42.44;17.09
64294;BME280;50636;45.596;5.258;2023-07-08T10:02:33;98798.38;;;42.12;17.26
64294;BME280;50636;45.596;5.258;2023-07-08T10:07:41;98808.50;;;41.32;18.20
64294;BME280;50636;45.596;5.258;2023-07-08T10:10:08;98805.69;;;40.65;18.58
64294;BME280;50636;45.596;5.258;2023-07-08T10:12:36;98791.31;;;41.06;18.34
64294;BME280;50636;45.596;5.258;2023-07-08T10:15:05;98815.50;;;40.73;18.65
64294;BME280;50636;45.596;5.258;2023-07-08T10:17:36;98805.66;;;40.80;18.92
64294;BME280;50636;45.596;5.258;2023-07-08T10:20:10;98808.50;;;41.28;19.01
64294;BME280;50636;45.596;5.258;2023-07-08T10:25:24;98795.47;;;42.88;18.20
64294;BME280;50636;45.596;5.258;2023-07-08T10:27:56;98793.16;;;42.83;16.88
64294;BME280;50636;45.596;5.258;2023-07-08T10:30:35;98793.78;;;42.67;17.31
64294;BME280;50636;45.596;5.258;2023-07-08T10:38:29;98792.63;;;41.47;18.28
64294;BME280;50636;45.596;5.258;2023-07-08T10:56:20;98784.78;;;41.90;17.84
64294;BME280;50636;45.596;5.258;2023-07-08T11:06:19;98767.44;;;42.62;17.64
64294;BME280;50636;45.596;5.258;2023-07-08T11:08:48;98776.72;;;42.41;17.26
64294;BME280;50636;45.596;5.258;2023-07-08T11:14:04;98767.47;;;41.41;18.18
64294;BME280;50636;45.596;5.258;2023-07-08T11:16:37;98771.34;;;40.95;18.73
64294;BME280;50636;45.596;5.258;2023-07-08T11:19:09;98774.50;;;40.97;18.15
64294;BME280;50636;45.596;5.258;2023-07-08T11:21:43;98775.00;;;40.70;18.55
64294;BME280;50636;45.596;5.258;2023-07-08T11:24:12;98768.81;;;40.52;18.98
64294;BME280;50636;45.596;5.258;2023-07-08T11:27:14;98772.69;;;40.58;18.97
64294;BME280;50636;45.596;5.258;2023-07-08T11:29:46;98765.75;;;41.09;18.52
64294;BME280;50636;45.596;5.258;2023-07-08T11:32:17;98757.22;;;41.45;18.40
64294;BME280;50636;45.596;5.258;2023-07-08T11:34:46;98767.56;;;41.34;18.73
64294;BME280;50636;45.596;5.258;2023-07-08T11:37:12;98763.22;;;41.33;18.79
64294;BME280;50636;45.596;5.258;2023-07-08T11:39:45;98774.34;;;41.22;18.86
64294;BME280;50636;45.596;5.258;2023-07-08T11:42:21;98741.78;;;41.03;18.56
64294;BME280;50636;45.596;5.258;2023-07-08T11:44:51;98761.16;;;40.92;19.02
64294;BME280;50636;45.596;5.258;2023-07-08T11:50:01;98760.00;;;41.42;19.02
64294;BME280;50636;45.596;5.258;2023-07-08T11:52:27;98761.63;;;41.81;19.03
64294;BME280;50636;45.596;5.258;2023-07-08T11:55:03;98760.84;;;41.84;18.09
64294;BME280;50636;45.596;5.258;2023-07-08T11:57:40;98754.44;;;41.45;18.50
64294;BME280;50636;45.596;5.258;2023-07-08T12:00:13;98758.50;;;41.79;18.47
64294;BME280;50636;45.596;5.258;2023-07-08T12:02:49;98756.66;;;41.65;17.92
64294;BME280;50636;45.596;5.258;2023-07-08T12:05:15;98751.97;;;41.09;18.13
64294;BME280;50636;45.596;5.258;2023-07-08T12:07:42;98758.25;;;40.40;18.32
64294;BME280;50636;45.596;5.258;2023-07-08T12:13:09;98750.91;;;39.93;18.86
64294;BME280;50636;45.596;5.258;2023-07-08T12:15:36;98752.84;;;40.04;19.16
64294;BME280;50636;45.596;5.258;2023-07-08T12:18:13;98744.25;;;39.91;19.07
64294;BME280;50636;45.596;5.258;2023-07-08T12:20:41;98737.19;;;39.90;19.24
64294;BME280;50636;45.596;5.258;2023-07-08T12:23:17;98732.00;;;40.10;19.64
64294;BME280;50636;45.596;5.258;2023-07-08T12:25:42;98739.44;;;40.24;19.16
64294;BME280;50636;45.596;5.258;2023-07-08T12:28:08;98734.00;;;40.06;19.50
64294;BME280;50636;45.596;5.258;2023-07-08T12:30:34;98721.84;;;40.07;19.90
64294;BME280;50636;45.596;5.258;2023-07-08T12:33:00;98737.50;;;40.13;19.59
64294;BME280;50636;45.596;5.258;2023-07-08T12:35:27;98745.00;;;39.84;19.23
64294;BME280;50636;45.596;5.258;2023-07-08T12:37:56;98734.50;;;39.43;19.48
64294;BME280;50636;45.596;5.258;2023-07-08T12:40:22;98742.72;;;39.18;19.63
64294;BME280;50636;45.596;5.258;2023-07-08T12:42:48;98730.88;;;38.89;19.10
64294;BME280;50636;45.596;5.258;2023-07-08T12:45:15;98743.66;;;38.45;19.96
64294;BME280;50636;45.596;5.258;2023-07-08T12:47:41;98728.72;;;38.28;20.20
64294;BME280;50636;45.596;5.258;2023-07-08T12:50:08;98723.66;;;38.34;20.21
64294;BME280;50636;45.596;5.258;2023-07-08T12:52:34;98721.72;;;38.45;20.82
64294;BME280;50636;45.596;5.258;2023-07-08T12:54:59;98728.81;;;38.50;20.78
64294;BME280;50636;45.596;5.258;2023-07-08T12:57:25;98726.88;;;38.58;20.76
64294;BME280;50636;45.596;5.258;2023-07-08T12:59:51;98718.56;;;38.32;20.76
64294;BME280;50636;45.596;5.258;2023-07-08T13:02:17;98722.69;;;38.01;20.85
64294;BME280;50636;45.596;5.258;2023-07-08T13:04:45;98724.91;;;37.74;21.47
64294;BME280;50636;45.596;5.258;2023-07-08T13:09:55;98716.16;;;37.09;21.67
64294;BME280;50636;45.596;5.258;2023-07-08T13:12:21;98714.72;;;37.23;22.25
64294;BME280;50636;45.596;5.258;2023-07-08T13:14:49;98718.94;;;37.13;22.21
64294;BME280;50636;45.596;5.258;2023-07-08T13:17:16;98712.06;;;36.89;22.10
64294;BME280;50636;45.596;5.258;2023-07-08T13:19:42;98720.88;;;36.71;22.26
64294;BME280;50636;45.596;5.258;2023-07-08T13:22:18;98718.34;;;36.59;22.46
64294;BME280;50636;45.596;5.258;2023-07-08T13:24:44;98717.91;;;36.53;22.48
64294;BME280;50636;45.596;5.258;2023-07-08T13:27:47;98719.41;;;36.47;22.80
64294;BME280;50636;45.596;5.258;2023-07-08T13:30:15;98716.03;;;36.61;23.15
64294;BME280;50636;45.596;5.258;2023-07-08T13:32:41;98718.13;;;36.71;23.06
64294;BME280;50636;45.596;5.258;2023-07-08T13:35:20;98714.16;;;36.65;22.44
64294;BME280;50636;45.596;5.258;2023-07-08T13:37:46;98712.47;;;36.57;22.06
64294;BME280;50636;45.596;5.258;2023-07-08T13:40:13;98721.13;;;36.63;22.41
64294;BME280;50636;45.596;5.258;2023-07-08T13:42:39;98713.16;;;36.47;22.33
64294;BME280;50636;45.596;5.258;2023-07-08T13:45:15;98718.72;;;36.24;22.27
64294;BME280;50636;45.596;5.258;2023-07-08T13:47:42;98712.84;;;36.22;22.44
64294;BME280;50636;45.596;5.258;2023-07-08T13:50:17;98711.41;;;36.31;22.77
64294;BME280;50636;45.596;5.258;2023-07-08T13:52:44;98715.97;;;36.24;22.95
64294;BME280;50636;45.596;5.258;2023-07-08T13:55:15;98715.38;;;36.37;23.35
64294;BME280;50636;45.596;5.258;2023-07-08T13:57:41;98709.34;;;36.55;22.10
64294;BME280;50636;45.596;5.258;2023-07-08T14:00:07;98709.34;;;36.55;22.31